Time;durP1;ratioP1;P1;durP2;ratioP2;P2;SDS_P1;SDS_P2;PMS_P1;PMS_P2;Temp;Humidity;BMP_temperature;BMP_pressure;BME280_temperature;BME280_humidity;BME280_pressure;Samples;Min_cycle;Max_cycle;Signal;HPM_P1;HPM_P2
2021/03/27 00:00:14;;;;;;;42.58;22.02;;;11.30;85.70;;;;;;5074116;28;20544;-72
2021/03/27 00:02:52;;;;;;;42.28;20.30;;;11.20;86.00;;;;;;5072900;28;20060;-72
2021/03/27 00:05:22;;;;;;;40.35;20.67;;;11.20;86.50;;;;;;5073860;28;20028;-71
2021/03/27 00:08:13;;;;;;;42.25;20.98;;;11.10;86.70;;;;;;5072793;28;20017;-71
2021/03/27 00:10:49;;;;;;;38.42;21.00;;;11.20;87.20;;;;;;5052834;28;20415;-72
2021/03/27 00:13:30;;;;;;;44.35;20.10;;;11.10;87.30;;;;;;5052207;28;20029;-72
2021/03/27 00:16:47;;;;;;;37.83;20.80;;;11.00;87.70;;;;;;5052589;28;20063;-71
2021/03/27 00:19:35;;;;;;;38.22;21.25;;;11.10;87.90;;;;;;5046970;28;20364;-71
2021/03/27 00:22:12;;;;;;;37.78;19.95;;;11.00;88.20;;;;;;5053575;28;20045;-71
2021/03/27 00:24:56;;;;;;;41.20;21.35;;;11.10;88.40;;;;;;5072235;28;20123;-71
2021/03/27 00:27:30;;;;;;;41.40;20.30;;;11.00;88.50;;;;;;5073701;28;20025;-71
2021/03/27 00:30:02;;;;;;;39.03;20.65;;;11.00;88.80;;;;;;5072224;28;20124;-72
2021/03/27 00:32:48;;;;;;;39.33;21.55;;;11.10;88.90;;;;;;5072160;28;20032;-71
2021/03/27 00:35:22;;;;;;;42.90;23.10;;;11.10;89.00;;;;;;5073390;28;20044;-71
2021/03/27 00:37:49;;;;;;;44.85;21.00;;;11.10;89.10;;;;;;5073339;28;20055;-72
2021/03/27 00:40:20;;;;;;;50.33;23.40;;;11.10;89.10;;;;;;5061420;28;20017;-71
2021/03/27 00:42:51;;;;;;;44.42;21.85;;;11.10;89.10;;;;;;5053233;28;20035;-71
2021/03/27 00:45:22;;;;;;;49.60;22.52;;;11.20;90.00;;;;;;5053181;28;20027;-71
2021/03/27 00:47:52;;;;;;;39.35;21.05;;;11.20;89.40;;;;;;5052090;28;20079;-71
2021/03/27 00:50:26;;;;;;;38.08;20.67;;;11.20;89.40;;;;;;5053316;28;20032;-71
2021/03/27 00:52:58;;;;;;;43.28;22.45;;;11.20;89.20;;;;;;5052994;28;20028;-71
2021/03/27 00:55:34;;;;;;;42.25;20.75;;;11.30;89.50;;;;;;5052978;28;20112;-71
2021/03/27 00:58:14;;;;;;;41.83;20.33;;;11.30;89.50;;;;;;5053082;28;20056;-71
2021/03/27 01:00:44;;;;;;;43.28;20.75;;;11.30;89.40;;;;;;5052975;28;20036;-71
2021/03/27 01:03:20;;;;;;;41.60;21.90;;;11.20;89.70;;;;;;5051722;28;20040;-71
2021/03/27 01:05:50;;;;;;;43.42;22.67;;;11.20;89.90;;;;;;5051456;28;20043;-71
2021/03/27 01:08:18;;;;;;;38.75;20.40;;;11.20;89.90;;;;;;5052882;28;20025;-71
2021/03/27 01:11:07;;;;;;;46.13;21.85;;;11.10;90.00;;;;;;5052723;28;20078;-72
2021/03/27 01:13:42;;;;;;;41.40;21.17;;;11.10;90.30;;;;;;5051534;28;20427;-71
2021/03/27 01:16:13;;;;;;;42.83;22.05;;;11.10;90.40;;;;;;5052954;28;20033;-71
2021/03/27 01:18:42;;;;;;;40.63;21.92;;;11.00;90.60;;;;;;5053180;28;20113;-71
2021/03/27 01:21:13;;;;;;;40.58;22.65;;;11.10;90.80;;;;;;5052916;28;20140;-72
2021/03/27 01:23:39;;;;;;;37.95;21.48;;;11.10;90.80;;;;;;5065747;28;20108;-72
2021/03/27 01:26:10;;;;;;;44.42;23.00;;;11.00;90.90;;;;;;5072261;28;20036;-71
2021/03/27 01:28:42;;;;;;;39.65;21.15;;;11.00;91.00;;;;;;5072933;28;20028;-72
2021/03/27 01:31:10;;;;;;;;;;;11.00;91.00;;;;;;5073190;28;20462;-71
2021/03/27 01:33:59;;;;;;;45.55;22.58;;;11.10;91.20;;;;;;5071234;28;19909;-71
2021/03/27 01:37:02;;;;;;;40.92;22.23;;;11.00;91.20;;;;;;5071161;28;20027;-71
2021/03/27 01:39:36;;;;;;;43.13;23.73;;;11.00;91.40;;;;;;5057047;28;20402;-71
2021/03/27 01:42:11;;;;;;;43.75;23.17;;;11.00;91.50;;;;;;5071159;28;20052;-71
2021/03/27 01:44:46;;;;;;;43.72;24.92;;;10.90;91.70;;;;;;5070173;28;20036;-71
2021/03/27 01:47:32;;;;;;;43.67;23.98;;;10.90;91.80;;;;;;5071806;28;20032;-71
2021/03/27 01:50:24;;;;;;;49.17;25.30;;;10.90;91.90;;;;;;5072542;28;20049;-71
2021/03/27 01:53:01;;;;;;;45.88;24.08;;;10.90;92.00;;;;;;5069682;28;20056;-71
2021/03/27 01:55:39;;;;;;;43.70;25.60;;;10.90;92.20;;;;;;5072314;28;20063;-71
2021/03/27 01:58:16;;;;;;;46.95;25.67;;;10.90;92.20;;;;;;5071109;28;20121;-72
2021/03/27 02:00:58;;;;;;;50.97;25.50;;;10.90;92.30;;;;;;5072079;28;20041;-71
2021/03/27 02:03:47;;;;;;;47.40;26.35;;;10.90;92.40;;;;;;5072384;28;20090;-71
2021/03/27 02:06:26;;;;;;;51.97;25.48;;;10.90;92.50;;;;;;5070891;28;20029;-72
2021/03/27 02:09:04;;;;;;;47.90;25.67;;;10.90;92.60;;;;;;5072200;28;20099;-71
2021/03/27 02:11:47;;;;;;;48.35;24.77;;;10.90;92.80;;;;;;5072240;28;20459;-71
2021/03/27 02:14:35;;;;;;;47.08;24.83;;;10.80;92.80;;;;;;5070800;28;20036;-72
2021/03/27 02:17:03;;;;;;;45.58;24.55;;;10.80;92.90;;;;;;5070871;28;20048;-71
2021/03/27 02:20:06;;;;;;;45.38;24.98;;;10.80;93.30;;;;;;5072134;28;20020;-71
2021/03/27 02:22:35;;;;;;;;;;;10.70;93.40;;;;;;5072475;28;20057;-72
2021/03/27 02:25:19;;;;;;;45.95;25.15;;;10.70;93.50;;;;;;5072105;28;19999;-72
2021/03/27 02:28:10;;;;;;;44.00;24.83;;;10.70;93.60;;;;;;5071030;28;20052;-71
2021/03/27 02:30:41;;;;;;;49.60;25.88;;;10.70;93.60;;;;;;5072047;28;20036;-71
2021/03/27 02:33:13;;;;;;;49.17;26.80;;;10.70;93.60;;;;;;5070706;28;20029;-72
2021/03/27 02:35:54;;;;;;;45.75;24.48;;;10.70;93.60;;;;;;5071860;28;20021;-72
2021/03/27 02:38:28;;;;;;;46.55;25.80;;;10.70;93.80;;;;;;5075384;28;20024;-72
2021/03/27 02:41:30;;;;;;;47.85;25.52;;;10.70;94.00;;;;;;5057206;28;20032;-72
2021/03/27 02:44:06;;;;;;;55.83;24.60;;;10.70;94.00;;;;;;5055458;28;20419;-72
2021/03/27 02:46:47;;;;;;;52.33;26.15;;;10.70;94.10;;;;;;5055551;28;20021;-72
2021/03/27 02:49:24;;;;;;;45.97;24.77;;;10.60;94.00;;;;;;5055516;28;20025;-71
2021/03/27 02:52:11;;;;;;;41.17;23.85;;;10.60;94.30;;;;;;5055500;28;20364;-71
2021/03/27 02:55:21;;;;;;;44.75;25.02;;;10.60;94.50;;;;;;5055385;28;20635;-72
2021/03/27 02:58:12;;;;;;;44.45;25.83;;;10.50;94.70;;;;;;5073104;28;20486;-72
2021/03/27 03:00:56;;;;;;;47.38;26.13;;;10.50;94.80;;;;;;5054055;28;20033;-72
2021/03/27 03:04:09;;;;;;;56.70;27.48;;;10.50;95.10;;;;;;5054820;28;20533;-72
2021/03/27 03:06:42;;;;;;;47.17;26.23;;;10.50;94.90;;;;;;5073170;28;20462;-72
2021/03/27 03:09:14;;;;;;;54.17;26.95;;;10.40;95.10;;;;;;5075557;28;20078;-72
2021/03/27 03:12:06;;;;;;;49.95;27.05;;;10.40;95.30;;;;;;5061156;28;20037;-72
2021/03/27 03:14:59;;;;;;;50.67;27.37;;;10.40;95.40;;;;;;5053757;28;20464;-71
2021/03/27 03:17:38;;;;;;;48.28;25.52;;;10.40;95.40;;;;;;5055060;28;20025;-72
2021/03/27 03:20:24;;;;;;;42.13;25.30;;;10.40;95.30;;;;;;5054943;28;20506;-72
2021/03/27 03:23:18;;;;;;;48.95;27.13;;;10.30;95.30;;;;;;5061121;28;20049;-72
2021/03/27 03:26:13;;;;;;;47.75;26.65;;;10.20;95.80;;;;;;5073381;28;20427;-72
2021/03/27 03:29:04;;;;;;;51.92;26.33;;;10.10;96.30;;;;;;5066203;28;20079;-72
2021/03/27 03:31:40;;;;;;;41.85;24.30;;;10.10;96.60;;;;;;5073259;28;20151;-72
2021/03/27 03:34:33;;;;;;;50.95;26.10;;;10.00;97.00;;;;;;5074571;28;20023;-72
2021/03/27 03:37:24;;;;;;;46.67;24.65;;;10.00;97.10;;;;;;5076058;28;20387;-72
2021/03/27 03:40:08;;;;;;;47.00;24.60;;;10.00;96.80;;;;;;5044840;28;20600;-72
2021/03/27 03:43:00;;;;;;;45.00;25.92;;;9.90;96.60;;;;;;5073263;28;20023;-72
2021/03/27 03:45:50;;;;;;;46.50;25.73;;;9.80;97.10;;;;;;5074484;28;20387;-72
2021/03/27 03:48:46;;;;;;;51.45;25.08;;;9.80;97.10;;;;;;5073650;28;20031;-72
2021/03/27 03:51:42;;;;;;;49.72;25.55;;;9.80;97.10;;;;;;5074502;28;20027;-72
2021/03/27 03:54:41;;;;;;;48.70;26.60;;;9.80;97.30;;;;;;5072691;28;20396;-72
2021/03/27 03:57:31;;;;;;;51.13;27.58;;;9.70;97.60;;;;;;5074263;28;20107;-72
2021/03/27 04:00:24;;;;;;;50.90;25.80;;;9.80;97.90;;;;;;5074276;28;20074;-72
2021/03/27 04:03:18;;;;;;;47.80;25.90;;;9.80;97.80;;;;;;5072895;28;20032;-72
2021/03/27 04:05:58;;;;;;;54.53;27.63;;;9.80;97.50;;;;;;5073433;28;20106;-72
2021/03/27 04:08:36;;;;;;;55.60;27.58;;;9.70;97.60;;;;;;5073303;28;20029;-72
2021/03/27 04:11:09;;;;;;;55.97;26.02;;;9.70;97.90;;;;;;5073491;28;20473;-72
2021/03/27 04:13:46;;;;;;;51.35;25.80;;;9.70;98.00;;;;;;5073726;28;20028;-71
2021/03/27 04:16:17;;;;;;;44.08;25.08;;;9.60;97.90;;;;;;5073356;28;20102;-71
2021/03/27 04:19:11;;;;;;;51.83;26.55;;;9.70;98.00;;;;;;5073226;28;20488;-71
2021/03/27 04:21:59;;;;;;;56.55;26.13;;;9.60;98.50;;;;;;5073673;28;20131;-72
2021/03/27 04:24:31;;;;;;;48.58;25.85;;;9.70;98.70;;;;;;5072247;28;20034;-71
2021/03/27 04:27:15;;;;;;;53.17;29.97;;;9.70;98.70;;;;;;5073648;28;20017;-71
2021/03/27 04:29:59;;;;;;;53.83;26.05;;;9.70;98.70;;;;;;5073569;28;20082;-71
2021/03/27 04:32:43;;;;;;;52.55;27.05;;;9.70;98.90;;;;;;5072469;28;20043;-71
2021/03/27 04:35:45;;;;;;;50.92;26.40;;;9.70;99.10;;;;;;5071898;28;20036;-72
2021/03/27 04:38:24;;;;;;;50.43;27.90;;;9.70;99.00;;;;;;5073463;28;20030;-71
2021/03/27 04:41:04;;;;;;;47.17;25.92;;;9.70;99.20;;;;;;5056738;28;20155;-71
2021/03/27 04:43:35;;;;;;;48.78;25.83;;;9.80;99.10;;;;;;5053252;28;20052;-71
2021/03/27 04:46:20;;;;;;;46.97;25.52;;;9.80;99.30;;;;;;5053338;28;20020;-71
2021/03/27 04:49:23;;;;;;;49.55;26.23;;;9.80;99.40;;;;;;5053396;28;20028;-71
2021/03/27 04:51:54;;;;;;;;;;;9.80;99.50;;;;;;5086081;28;20371;-71
2021/03/27 04:54:29;;;;;;;52.35;25.77;;;9.80;99.50;;;;;;5053563;28;20289;-71
2021/03/27 04:57:06;;;;;;;51.38;26.08;;;9.80;99.60;;;;;;5053434;28;20501;-71
2021/03/27 05:00:09;;;;;;;50.30;26.85;;;9.90;99.60;;;;;;5053271;28;20029;-71
2021/03/27 05:02:43;;;;;;;48.25;25.70;;;10.00;99.60;;;;;;5053317;28;20017;-72
2021/03/27 05:05:18;;;;;;;50.72;28.05;;;10.00;99.30;;;;;;5052990;28;20478;-71
2021/03/27 05:07:51;;;;;;;54.40;26.65;;;9.90;99.90;;;;;;5053164;28;20108;-71
2021/03/27 05:10:25;;;;;;;51.92;27.13;;;9.80;99.90;;;;;;5085110;28;20482;-71
2021/03/27 05:13:25;;;;;;;52.40;27.33;;;9.80;99.90;;;;;;5085265;28;20036;-71
2021/03/27 05:16:11;;;;;;;51.15;27.50;;;9.70;99.90;;;;;;5052953;28;20428;-71
2021/03/27 05:18:51;;;;;;;56.20;28.35;;;9.70;99.90;;;;;;5052917;28;20033;-72
2021/03/27 05:21:35;;;;;;;51.63;27.88;;;9.70;99.90;;;;;;5052720;28;20099;-72
2021/03/27 05:24:30;;;;;;;49.55;26.65;;;9.80;99.90;;;;;;5068590;28;20032;-71
2021/03/27 05:27:43;;;;;;;52.70;26.60;;;9.80;99.90;;;;;;5060973;28;20089;-72
2021/03/27 05:30:35;;;;;;;47.72;27.48;;;9.80;99.90;;;;;;5049592;28;20470;-71
2021/03/27 05:33:43;;;;;;;57.05;27.58;;;9.90;99.90;;;;;;5050580;28;20033;-71
2021/03/27 05:36:25;;;;;;;48.67;26.38;;;10.00;99.90;;;;;;5010306;28;20073;-72
2021/03/27 05:39:14;;;;;;;53.88;27.00;;;10.00;99.90;;;;;;5069393;28;20190;-72
2021/03/27 05:42:16;;;;;;;55.00;27.92;;;10.00;99.90;;;;;;5052458;28;20032;-71
2021/03/27 05:45:09;;;;;;;49.53;24.88;;;10.00;99.90;;;;;;5052345;28;20025;-72
2021/03/27 05:47:53;;;;;;;;;;;10.00;99.90;;;;;;5059292;28;20087;-71
2021/03/27 05:50:22;;;;;;;52.97;26.30;;;10.00;99.90;;;;;;5051245;28;19959;-71
2021/03/27 05:53:39;;;;;;;56.17;27.63;;;10.00;99.90;;;;;;5052287;28;20043;-71
2021/03/27 05:56:35;;;;;;;50.75;25.83;;;10.10;99.90;;;;;;5052348;28;20074;-72
2021/03/27 05:59:34;;;;;;;44.67;26.42;;;10.10;99.90;;;;;;5052284;28;20021;-71
2021/03/27 06:02:23;;;;;;;51.97;25.20;;;10.20;99.90;;;;;;5052169;28;20029;-72
2021/03/27 06:05:31;;;;;;;46.53;25.85;;;10.20;99.90;;;;;;5052126;28;20083;-71
2021/03/27 06:08:34;;;;;;;55.80;26.38;;;10.20;99.90;;;;;;5070035;28;20032;-71
2021/03/27 06:11:11;;;;;;;50.60;27.10;;;10.20;99.90;;;;;;5084300;28;20044;-71
2021/03/27 06:14:04;;;;;;;51.70;27.27;;;10.30;99.90;;;;;;5062814;28;20126;-72
2021/03/27 06:16:56;;;;;;;51.10;26.73;;;10.30;99.90;;;;;;5056101;28;20028;-72
2021/03/27 06:19:44;;;;;;;51.67;27.30;;;10.30;99.90;;;;;;5047613;28;20048;-72
2021/03/27 06:22:17;;;;;;;51.20;27.63;;;10.40;99.90;;;;;;5036262;28;20044;-71
2021/03/27 06:24:49;;;;;;;54.45;29.65;;;10.40;99.90;;;;;;5075917;28;20024;-72
2021/03/27 06:27:17;;;;;;;50.75;28.52;;;10.50;99.90;;;;;;5074711;28;20021;-72
2021/03/27 06:30:19;;;;;;;52.10;28.55;;;10.50;99.90;;;;;;5075893;28;20032;-71
2021/03/27 06:33:00;;;;;;;52.97;28.15;;;10.60;99.90;;;;;;5075761;28;20016;-71
2021/03/27 06:36:02;;;;;;;51.28;27.60;;;10.60;99.90;;;;;;5075842;28;20078;-72
2021/03/27 06:38:59;;;;;;;50.53;29.40;;;10.60;99.90;;;;;;5075746;28;20074;-72
2021/03/27 06:41:40;;;;;;;57.22;31.08;;;10.50;99.90;;;;;;5055694;28;20067;-72
2021/03/27 06:44:24;;;;;;;63.15;31.90;;;10.60;99.90;;;;;;5055338;28;20020;-72
2021/03/27 06:47:08;;;;;;;60.10;31.17;;;10.60;99.90;;;;;;5055739;28;20148;-72
2021/03/27 06:50:06;;;;;;;61.60;31.13;;;10.60;99.90;;;;;;5055597;28;20059;-71
2021/03/27 06:52:50;;;;;;;56.78;29.80;;;10.60;99.90;;;;;;5055144;28;20120;-72
2021/03/27 06:55:45;;;;;;;60.13;30.33;;;10.60;99.90;;;;;;5055392;28;20049;-72
2021/03/27 06:58:17;;;;;;;57.25;29.40;;;10.70;99.90;;;;;;5054199;28;20104;-72
2021/03/27 07:01:08;;;;;;;58.45;30.80;;;10.70;99.90;;;;;;5055217;28;20523;-72
2021/03/27 07:04:07;;;;;;;59.08;32.33;;;10.70;99.90;;;;;;5054979;28;20040;-71
2021/03/27 07:06:39;;;;;;;61.30;31.35;;;10.70;99.90;;;;;;5053909;28;20445;-71
2021/03/27 07:09:32;;;;;;;62.58;30.10;;;10.70;99.90;;;;;;5057192;28;20064;-72
2021/03/27 07:12:23;;;;;;;55.92;30.73;;;10.70;99.90;;;;;;5075169;28;20116;-71
2021/03/27 07:15:26;;;;;;;56.42;31.13;;;10.80;99.90;;;;;;5075076;28;20035;-72
2021/03/27 07:18:17;;;;;;;61.97;31.42;;;10.70;99.90;;;;;;5073492;28;20030;-72
2021/03/27 07:21:05;;;;;;;58.78;31.70;;;10.80;99.90;;;;;;5075133;28;20025;-72
2021/03/27 07:24:04;;;;;;;59.47;31.88;;;10.80;99.90;;;;;;5073917;28;20056;-72
2021/03/27 07:26:30;;;;;;;61.20;31.73;;;10.90;99.90;;;;;;5075043;28;20074;-72
2021/03/27 07:29:30;;;;;;;62.53;33.40;;;10.90;99.90;;;;;;5074945;28;20024;-72
2021/03/27 07:32:18;;;;;;;68.50;34.35;;;11.00;99.90;;;;;;5075046;28;20044;-71
2021/03/27 07:35:21;;;;;;;64.50;35.33;;;11.10;99.90;;;;;;5074523;28;20480;-71
2021/03/27 07:38:13;;;;;;;66.47;34.08;;;11.10;99.90;;;;;;5073502;28;20467;-71
2021/03/27 07:40:58;;;;;;;72.47;38.67;;;11.30;99.90;;;;;;5063837;28;20094;-72
2021/03/27 07:43:33;;;;;;;73.97;37.88;;;11.30;99.90;;;;;;5074333;28;20031;-72
2021/03/27 07:46:07;;;;;;;76.55;37.22;;;11.30;99.90;;;;;;5083485;28;20025;-72
2021/03/27 07:48:54;;;;;;;31.30;18.15;;;11.40;99.90;;;;;;5094674;28;20024;-72
2021/03/27 07:51:24;;;;;;;45.03;23.95;;;11.50;98.80;;;;;;5094643;28;20073;-73
2021/03/27 07:54:08;;;;;;;57.85;29.50;;;11.60;97.60;;;;;;5094490;28;20028;-72
2021/03/27 07:57:04;;;;;;;67.88;37.63;;;11.80;98.10;;;;;;5094532;28;20032;-72
2021/03/27 07:59:54;;;;;;;62.50;36.08;;;11.70;99.80;;;;;;5092171;28;20035;-71
2021/03/27 08:02:38;;;;;;;62.50;34.78;;;11.70;99.80;;;;;;5073312;28;20103;-72
2021/03/27 08:05:12;;;;;;;62.17;34.92;;;11.70;99.40;;;;;;5065358;28;20025;-77
2021/03/27 08:07:41;;;;;;;65.70;36.33;;;11.70;99.40;;;;;;5064322;28;20051;-77
2021/03/27 08:10:21;;;;;;;66.28;34.85;;;11.80;99.50;;;;;;5068139;28;20048;-77
2021/03/27 08:13:26;;;;;;;65.15;36.03;;;11.90;99.30;;;;;;5072100;28;20024;-77
2021/03/27 08:16:12;;;;;;;66.93;35.20;;;11.90;99.50;;;;;;5051821;28;20041;-77
2021/03/27 08:19:23;;;;;;;66.80;34.42;;;12.00;99.10;;;;;;5055413;28;20021;-77
2021/03/27 08:21:58;;;;;;;64.88;34.40;;;12.10;98.80;;;;;;5066361;28;20432;-72
2021/03/27 08:24:54;;;;;;;64.55;34.97;;;12.20;99.00;;;;;;5066311;28;20024;-72
2021/03/27 08:27:35;;;;;;;62.97;35.08;;;12.30;99.00;;;;;;5070289;28;20035;-72
2021/03/27 08:30:35;;;;;;;64.85;35.63;;;12.40;98.60;;;;;;5069712;28;20094;-72
2021/03/27 08:33:19;;;;;;;63.13;35.03;;;12.40;98.00;;;;;;5069472;28;20077;-72
2021/03/27 08:36:18;;;;;;;70.97;34.97;;;12.50;97.50;;;;;;5067578;28;20048;-72
2021/03/27 08:39:13;;;;;;;57.72;31.42;;;12.60;97.90;;;;;;5072003;28;20492;-71
2021/03/27 08:41:41;;;;;;;62.70;33.20;;;12.60;97.30;;;;;;5069303;28;20050;-72
2021/03/27 08:44:13;;;;;;;66.38;33.47;;;12.70;97.20;;;;;;5077400;28;20418;-72
2021/03/27 08:46:41;;;;;;;60.15;33.00;;;12.80;97.10;;;;;;5072261;28;20028;-72
2021/03/27 08:49:44;;;;;;;64.18;34.15;;;12.80;96.40;;;;;;5072087;28;20067;-72
2021/03/27 08:52:40;;;;;;;60.55;32.92;;;12.90;97.30;;;;;;5072171;28;20504;-71
2021/03/27 08:55:36;;;;;;;58.28;31.85;;;12.90;97.20;;;;;;5071235;28;20059;-72
2021/03/27 08:58:17;;;;;;;59.75;33.13;;;13.00;97.10;;;;;;5061838;28;20024;-77
2021/03/27 09:01:03;;;;;;;66.75;33.17;;;13.00;96.70;;;;;;5068802;28;20025;-72
2021/03/27 09:03:53;;;;;;;61.22;33.72;;;12.90;96.80;;;;;;5071350;28;20036;-72
2021/03/27 09:06:34;;;;;;;65.28;33.90;;;13.00;96.80;;;;;;5063258;28;20483;-72
2021/03/27 09:09:26;;;;;;;70.05;38.28;;;12.90;96.90;;;;;;5054416;28;20017;-72
2021/03/27 09:12:21;;;;;;;68.15;36.42;;;12.90;97.10;;;;;;5071415;28;20020;-72
2021/03/27 09:14:55;;;;;;;65.60;36.70;;;12.90;97.80;;;;;;5072646;28;20036;-72
2021/03/27 09:17:57;;;;;;;67.90;37.58;;;13.00;97.50;;;;;;5072695;28;20030;-72
2021/03/27 09:20:51;;;;;;;63.80;36.95;;;13.10;97.30;;;;;;5045826;28;20032;-72
2021/03/27 09:23:20;;;;;;;68.22;36.22;;;13.00;96.90;;;;;;5051924;28;20541;-72
2021/03/27 09:26:33;;;;;;;64.35;35.20;;;13.10;97.10;;;;;;5055440;28;20583;-77
2021/03/27 09:29:10;;;;;;;63.88;35.97;;;13.10;96.70;;;;;;5062244;28;20110;-77
2021/03/27 09:32:10;;;;;;;57.35;34.45;;;13.10;96.30;;;;;;5059644;28;20406;-78
2021/03/27 09:34:56;;;;;;;62.42;34.67;;;13.20;96.80;;;;;;5071889;28;20036;-78
2021/03/27 09:37:47;;;;;;;58.65;34.13;;;13.20;96.20;;;;;;5071264;28;20028;-78
2021/03/27 09:40:45;;;;;;;60.58;33.88;;;13.20;96.50;;;;;;5068310;28;20021;-77
2021/03/27 09:43:28;;;;;;;60.10;33.58;;;13.40;96.80;;;;;;5068118;28;20031;-78
2021/03/27 09:46:08;;;;;;;61.25;35.28;;;13.50;96.30;;;;;;5063166;28;20048;-72
2021/03/27 09:48:59;;;;;;;63.97;36.35;;;13.60;96.30;;;;;;5065557;28;20052;-73
2021/03/27 09:51:46;;;;;;;59.15;35.05;;;13.60;95.90;;;;;;5069777;28;20547;-73
2021/03/27 09:54:20;;;;;;;70.80;33.67;;;13.70;97.20;;;;;;5069904;28;20389;-72
2021/03/27 09:57:01;;;;;;;62.97;35.78;;;13.90;96.30;;;;;;5070933;28;20020;-73
2021/03/27 09:59:33;;;;;;;64.35;33.03;;;14.00;96.10;;;;;;5061181;28;20049;-72
2021/03/27 10:02:23;;;;;;;57.70;33.53;;;14.10;95.60;;;;;;5055772;28;20478;-72
2021/03/27 10:04:55;;;;;;;64.25;33.53;;;14.10;95.10;;;;;;5071893;28;20035;-72
2021/03/27 10:07:43;;;;;;;60.40;32.63;;;14.20;95.00;;;;;;5072144;28;20032;-72
2021/03/27 10:10:27;;;;;;;60.70;33.67;;;14.30;94.80;;;;;;5066286;28;20036;-72
2021/03/27 10:13:36;;;;;;;58.53;32.42;;;14.40;94.60;;;;;;5070946;28;20029;-72
2021/03/27 10:16:06;;;;;;;60.88;31.40;;;14.40;94.30;;;;;;5051396;28;20127;-72
2021/03/27 10:18:50;;;;;;;59.47;32.40;;;14.40;93.60;;;;;;5052300;28;20107;-72
2021/03/27 10:21:37;;;;;;;59.30;33.40;;;14.40;93.00;;;;;;5067560;28;20541;-73
2021/03/27 10:24:12;;;;;;;53.70;30.10;;;14.40;93.00;;;;;;5051950;28;20036;-72
2021/03/27 10:27:02;;;;;;;48.88;28.65;;;14.40;92.50;;;;;;5055897;28;20025;-72
2021/03/27 10:29:42;;;;;;;52.55;28.33;;;14.50;92.20;;;;;;5072035;28;20017;-72
2021/03/27 10:32:21;;;;;;;65.88;30.92;;;14.50;90.80;;;;;;5070637;28;20024;-72
2021/03/27 10:34:52;;;;;;;60.40;31.13;;;14.50;91.10;;;;;;5071767;28;20032;-73
2021/03/27 10:37:43;;;;;;;53.30;30.48;;;14.60;91.60;;;;;;5072145;28;20099;-72
2021/03/27 10:40:39;;;;;;;46.42;27.40;;;14.70;91.50;;;;;;5071878;28;20028;-72
2021/03/27 10:43:39;;;;;;;51.17;27.25;;;14.70;90.60;;;;;;5071682;28;20390;-73
2021/03/27 10:46:23;;;;;;;50.10;27.83;;;14.70;89.80;;;;;;5070553;28;20028;-72
2021/03/27 10:49:05;;;;;;;49.13;26.63;;;14.70;89.10;;;;;;5070612;28;20442;-72
2021/03/27 10:52:08;;;;;;;50.80;28.42;;;14.70;90.00;;;;;;5072161;28;20016;-72
2021/03/27 10:54:54;;;;;;;52.95;29.63;;;14.80;90.40;;;;;;5070399;28;20375;-73
2021/03/27 10:57:43;;;;;;;59.35;31.48;;;14.70;90.60;;;;;;5067197;28;20087;-73
2021/03/27 11:00:30;;;;;;;53.63;29.88;;;14.80;90.70;;;;;;5072758;28;20112;-72
2021/03/27 11:03:09;;;;;;;54.20;30.77;;;14.80;90.50;;;;;;5075465;28;20035;-72
2021/03/27 11:06:22;;;;;;;55.83;30.88;;;14.80;90.50;;;;;;5094466;28;20072;-72
2021/03/27 11:08:53;;;;;;;;;;;14.90;89.60;;;;;;5069678;28;20471;-72
2021/03/27 11:11:22;;;;;;;54.65;30.00;;;15.20;90.40;;;;;;5060895;28;20341;-72
2021/03/27 11:13:59;;;;;;;58.03;33.15;;;15.30;90.30;;;;;;5074376;28;20051;-72
2021/03/27 11:16:27;;;;;;;54.97;30.42;;;15.50;90.50;;;;;;5075093;28;20060;-72
2021/03/27 11:19:30;;;;;;;61.28;34.58;;;15.70;90.10;;;;;;5075001;28;20067;-72
2021/03/27 11:22:14;;;;;;;57.75;33.42;;;15.80;88.60;;;;;;5074570;28;20513;-72
2021/03/27 11:24:58;;;;;;;61.13;34.83;;;16.00;90.50;;;;;;5060215;28;20090;-72
2021/03/27 11:27:43;;;;;;;55.13;31.50;;;16.20;90.40;;;;;;5067392;28;20379;-72
2021/03/27 11:30:14;;;;;;;58.70;33.65;;;16.30;89.30;;;;;;5071970;28;20024;-72
2021/03/27 11:33:25;;;;;;;57.33;33.17;;;16.40;86.80;;;;;;5074192;28;20116;-72
2021/03/27 11:36:09;;;;;;;50.97;30.13;;;16.40;89.30;;;;;;5076053;28;20025;-72
2021/03/27 11:38:45;;;;;;;50.55;31.40;;;16.50;88.00;;;;;;5072292;28;20925;-72
2021/03/27 11:41:10;;;;;;;54.17;29.38;;;16.50;87.30;;;;;;5075014;28;20078;-78
2021/03/27 11:43:51;;;;;;;56.20;30.90;;;16.60;87.90;;;;;;5074779;28;20046;-79
2021/03/27 11:46:33;;;;;;;59.67;32.45;;;16.60;86.30;;;;;;5073747;28;20044;-79
2021/03/27 11:49:02;;;;;;;54.83;29.60;;;16.70;89.70;;;;;;5074650;28;20020;-78
2021/03/27 11:51:45;;;;;;;51.85;30.25;;;16.90;89.00;;;;;;5073090;28;20119;-79
2021/03/27 11:54:52;;;;;;;46.70;26.33;;;16.90;87.30;;;;;;5074520;28;20021;-79
2021/03/27 11:57:50;;;;;;;43.60;22.77;;;17.00;85.30;;;;;;5074395;28;20028;-78
2021/03/27 12:04:07;;;;;;;39.53;23.88;;;17.00;83.90;;;;;;5062039;28;20643;-78
2021/03/27 12:06:35;;;;;;;35.35;21.25;;;17.10;83.10;;;;;;5072386;28;20041;-79
2021/03/27 12:09:26;;;;;;;32.15;21.60;;;17.30;83.20;;;;;;5074027;28;20107;-78
2021/03/27 12:11:52;;;;;;;38.72;22.60;;;17.30;81.30;;;;;;5058264;28;20079;-79
2021/03/27 12:14:39;;;;;;;37.20;22.95;;;17.10;81.30;;;;;;5054467;28;20021;-79
2021/03/27 12:17:19;;;;;;;35.50;20.98;;;17.20;82.10;;;;;;5081449;28;20039;-79
2021/03/27 12:19:48;;;;;;;34.22;20.80;;;17.20;81.50;;;;;;5076834;28;20518;-79
2021/03/27 12:22:35;;;;;;;35.05;17.90;;;17.40;81.40;;;;;;5055622;28;20061;-79
2021/03/27 12:25:40;;;;;;;37.42;21.23;;;17.50;80.70;;;;;;5076288;28;20500;-78
2021/03/27 12:28:23;;;;;;;29.55;19.65;;;17.50;79.60;;;;;;5082430;28;20020;-79
2021/03/27 12:31:10;;;;;;;23.15;14.32;;;17.60;79.90;;;;;;5084612;28;20086;-78
2021/03/27 12:33:50;;;;;;;22.60;14.77;;;17.60;78.50;;;;;;5079908;28;20023;-78
2021/03/27 12:36:25;;;;;;;18.42;12.05;;;17.70;77.30;;;;;;5072077;28;20471;-78
2021/03/27 12:39:04;;;;;;;17.50;11.02;;;17.70;79.20;;;;;;5074307;28;20565;-78
2021/03/27 12:41:39;;;;;;;21.63;12.35;;;17.90;80.30;;;;;;5073301;28;20437;-79
2021/03/27 12:44:07;;;;;;;19.08;11.75;;;17.80;77.60;;;;;;5073641;28;20090;-79
2021/03/27 12:46:58;;;;;;;16.52;11.98;;;17.70;77.80;;;;;;5090839;28;20036;-78
2021/03/27 12:49:49;;;;;;;20.45;13.50;;;17.70;77.40;;;;;;5078328;28;20111;-79
2021/03/27 12:52:37;;;;;;;20.40;12.60;;;17.60;77.10;;;;;;5073219;28;20017;-79
2021/03/27 12:55:27;;;;;;;26.30;13.80;;;17.50;77.50;;;;;;5072240;28;20116;-79
2021/03/27 12:58:23;;;;;;;26.10;14.80;;;17.40;77.10;;;;;;5072891;28;20032;-79
2021/03/27 13:00:58;;;;;;;30.00;18.15;;;17.30;78.00;;;;;;5081373;28;20035;-79
2021/03/27 13:04:00;;;;;;;28.70;17.88;;;17.10;77.60;;;;;;5093609;28;20023;-79
2021/03/27 13:06:29;;;;;;;26.50;18.87;;;16.90;78.10;;;;;;5053142;28;20048;-78
2021/03/27 13:09:13;;;;;;;33.63;20.33;;;16.60;78.10;;;;;;5072939;28;20343;-79
2021/03/27 13:12:04;;;;;;;32.75;19.13;;;16.50;78.50;;;;;;5063188;28;20529;-79
2021/03/27 13:14:32;;;;;;;32.97;18.05;;;16.70;79.80;;;;;;5053055;28;20060;-79
2021/03/27 13:17:24;;;;;;;34.10;18.58;;;17.00;80.50;;;;;;5068193;28;20028;-79
2021/03/27 13:20:18;;;;;;;30.10;18.40;;;17.10;78.70;;;;;;5066729;28;20033;-79
2021/03/27 13:22:52;;;;;;;37.10;21.35;;;17.30;79.30;;;;;;5072276;28;20044;-78
2021/03/27 13:25:47;;;;;;;35.30;20.65;;;17.40;77.60;;;;;;5070710;28;20059;-79
2021/03/27 13:28:43;;;;;;;36.83;21.08;;;17.50;77.90;;;;;;5069782;28;20037;-79
2021/03/27 13:31:17;;;;;;;34.83;20.48;;;17.60;76.80;;;;;;5065890;28;20024;-79
2021/03/27 13:34:25;;;;;;;36.90;21.23;;;17.70;77.60;;;;;;5075296;28;20028;-79
2021/03/27 13:37:08;;;;;;;36.33;21.77;;;17.80;78.00;;;;;;5073310;28;20028;-79
2021/03/27 13:39:39;;;;;;;38.30;20.23;;;17.90;77.60;;;;;;5054771;28;20072;-78
2021/03/27 13:42:37;;;;;;;31.38;20.15;;;17.90;76.70;;;;;;5057519;28;20052;-78
2021/03/27 13:45:30;;;;;;;28.50;20.02;;;18.00;76.60;;;;;;5068610;28;20029;-79
2021/03/27 13:48:17;;;;;;;29.45;18.27;;;17.90;77.30;;;;;;5071127;28;20028;-78
2021/03/27 13:51:25;;;;;;;29.38;17.88;;;17.90;77.60;;;;;;5079568;28;20521;-79
2021/03/27 13:54:28;;;;;;;29.80;18.45;;;18.10;77.70;;;;;;5069882;28;20039;-72
2021/03/27 13:57:24;;;;;;;30.73;18.02;;;18.10;76.50;;;;;;5065449;28;20031;-72
2021/03/27 14:00:21;;;;;;;34.35;20.08;;;17.90;76.80;;;;;;5070522;28;20025;-72
2021/03/27 14:02:56;;;;;;;33.13;20.90;;;17.90;77.10;;;;;;5055238;28;20029;-71